Main page
METAR-TAF:

METAR-TAF

Airports :

Kuwait International Airport

Kuwait City, Kuwait

latitude: 29-13N, longitude: 047-59E, elevation: 55 m

Current weather observation

The report was made 23 minutes ago, at 22:00 UTC
Wind 5 kt from the North
Temperature 15°C
Humidity 72%
Pressure 1017 hPa
Visibility 10 km or more
no clouds below 1500 m and no cumulonimbus

METAR: OKBK 102200Z 36005KT CAVOK 15/10 Q1017 NOSIG

Time: 01:23 (22:23 UTC)

Forecast

The report was made 5 hours and 38 minutes ago, at 16:45 UTC
Forecast valid from 10 at 18 UTC to 11 at 24 UTC
Wind 3 kt from variable directions
Visibility: 7000 m
Temporary
from 10 at 20 UTC to 11 at 04 UTC
Visibility: 3000 m
mist

TAF: OKBK 101645Z 1018/1124 VRB03KT 7000 NSC TEMPO 1020/1104 3000 BR

Weather observations and forecasts of more than 4000 airports (METAR and TAF reports).

The available stations are represented by yellow and red dots on the map.

Hover mouse over dot to see the name of the station.

Then click to see weather observations and forecasts.

To change the map : click on the green buttons with a black cross to zoom in, on the green button with a dash to zoom out, or on the green arrows for adjacent maps.


METAR-TAF: